Andover, IA

12:54 PM CST on February 10, 2016 (GMT -0600)
Mayer Farm @ Eagle Point | | Change Station
CLOSE
Current Station
Personal Weather Station
Location: Clinton, IA
Elevation: 745 ft
Nearby Weather Stations

Elev 745 ft 41.89 °N, 90.19 °W | Updated 16 seconds ago

Partly Cloudy
Partly Cloudy
16.2 °F
Feels Like 6 °F
N
8.0
Wind Variable Wind from NW
Gusts 12.0 mph

Today
High -- | Low -- °F
--% Chance of Precip.
Yesterday
High -- | Low -- °F
Precip. -- in
Pressure 30.07 in
Visibility 10.0 miles
Clouds Clear
Windchill 6 °F
Dew Point 6 °F
Humidity 65%
Rainfall 0.00 in
Snow Depth Not available.
7:03 AM 5:26 PM
Waxing Crescent, 6% visible
METAR KSFY 101835Z AUTO 30007KT 10SM CLR M09/M18 A3007 RMK AO2 T10901180
Pressure 30.07 in
Visibility 10.0 miles
Clouds Clear
Windchill 6 °F
Dew Point 6 °F
Humidity 65%
Rainfall 0.00 in
Snow Depth Not available.
7:03 AM 5:26 PM
Waxing Crescent, 6% visible
METAR KSFY 101835Z AUTO 30007KT 10SM CLR M09/M18 A3007 RMK AO2 T10901180

10-Day Weather Forecast

Almanac

Astronomy

Feb. 10, 2016 Rise Set
Actual Time
Civil Twilight
Nautical Twilight
Astronomical Twilight
Moon
Length of Visible Light
Length of Day
Tomorrow will be .
, % of the Moon is Illuminated

Today's Extremes

State Highs State Lows

Community

WunderPhotos

Upload Photos

1,891,915 photos uploaded!

WunderBlog® & News

Nearby

Air Quality

  Air Quality AQ Index Pollutant
Not available.

Snow Depth

Station Depth Elevation

Earthquake Activity

City Distance Mag. Time & Date
Minimum magnitude displayed is 2.5.

Coastal Water Temperatures

Place Temperature

Stations

Nearby Weather Stations

Station Location Temp. Windchill Dew Point Humidity Wind Precip. Elev Updated Type
                   

Watches & Warnings

There are currently no watches in effect.